Time;durP1;ratioP1;P1;durP2;ratioP2;P2;SDS_P1;SDS_P2;PMS_P1;PMS_P2;Temp;Humidity;BMP_temperature;BMP_pressure;BME280_temperature;BME280_humidity;BME280_pressure;Samples;Min_cycle;Max_cycle;Signal;HPM_P1;HPM_P2
2023/08/23 00:01:45;;;;;;;5.72;2.20;;;;;;;21.96;55.24;101971.72;5039791;28;20293;-62
2023/08/23 00:04:13;;;;;;;3.15;1.70;;;;;;;21.95;55.14;101964.59;5024509;28;20080;-62
2023/08/23 00:06:40;;;;;;;2.33;1.58;;;;;;;21.94;55.08;101970.34;5038163;28;20109;-63
2023/08/23 00:09:08;;;;;;;5.93;1.75;;;;;;;21.93;55.14;101964.06;5051237;28;20067;-63
2023/08/23 00:11:38;;;;;;;3.53;1.55;;;;;;;21.91;55.16;101958.03;5044030;28;20050;-62
2023/08/23 00:14:05;;;;;;;3.10;1.92;;;;;;;21.90;55.33;101961.03;5058145;28;20082;-63
2023/08/23 00:16:33;;;;;;;3.63;1.80;;;;;;;21.85;55.30;101959.13;5063800;28;20074;-62
2023/08/23 00:19:01;;;;;;;4.50;2.25;;;;;;;21.87;55.38;101958.84;5063723;28;20052;-61
2023/08/23 00:21:29;;;;;;;5.57;2.00;;;;;;;21.85;55.20;101955.56;5061683;28;20510;-61
2023/08/23 00:23:57;;;;;;;4.03;1.98;;;;;;;21.83;55.59;101961.28;5053688;28;20049;-62
2023/08/23 00:26:25;;;;;;;3.50;1.67;;;;;;;21.83;55.27;101952.25;5043541;28;20251;-62
2023/08/23 00:28:54;;;;;;;4.05;1.90;;;;;;;21.81;55.34;101952.53;5062089;28;20070;-62
2023/08/23 00:31:22;;;;;;;8.23;2.50;;;;;;;21.77;55.69;101955.00;5063420;28;20325;-62
2023/08/23 00:33:50;;;;;;;4.30;1.75;;;;;;;21.77;55.72;101954.16;5060448;28;20049;-62
2023/08/23 00:36:18;;;;;;;5.38;1.35;;;;;;;21.75;55.74;101945.41;5062980;28;20060;-62
2023/08/23 00:38:45;;;;;;;4.53;2.00;;;;;;;21.74;55.63;101952.78;5056307;28;20109;-62
2023/08/23 00:41:13;;;;;;;3.15;1.80;;;;;;;21.72;55.44;101941.28;5043455;28;20575;-62
2023/08/23 00:43:41;;;;;;;4.00;1.58;;;;;;;21.71;55.50;101934.19;5043323;28;20081;-62
2023/08/23 00:46:10;;;;;;;3.40;1.42;;;;;;;21.69;55.41;101935.53;5052259;28;20057;-62
2023/08/23 00:48:39;;;;;;;6.78;1.73;;;;;;;21.68;55.57;101929.25;5063334;28;20505;-62
2023/08/23 00:51:07;;;;;;;4.97;1.83;;;;;;;21.66;55.48;101930.59;5043433;28;20045;-62
2023/08/23 00:53:37;;;;;;;3.65;1.80;;;;;;;21.63;55.50;101929.22;5045092;28;20050;-62
2023/08/23 00:56:05;;;;;;;4.15;2.30;;;;;;;21.62;55.50;101930.31;5042672;28;20053;-62
2023/08/23 00:58:33;;;;;;;4.95;1.67;;;;;;;21.61;55.52;101931.41;5043144;28;20078;-62
2023/08/23 01:01:01;;;;;;;3.38;1.65;;;;;;;21.54;55.84;101919.09;5049695;28;20049;-62
2023/08/23 01:03:32;;;;;;;3.67;1.70;;;;;;;21.59;55.54;101921.84;5044376;28;20049;-62
2023/08/23 01:06:12;;;;;;;2.70;1.63;;;;;;;21.58;55.69;101931.13;5043280;28;20109;-63
2023/08/23 01:08:48;;;;;;;5.40;2.30;;;;;;;21.55;55.89;101927.03;5042872;28;20510;-63
2023/08/23 01:11:24;;;;;;;2.45;1.70;;;;;;;21.54;55.80;101925.38;5042301;28;20087;-63
2023/08/23 01:14:02;;;;;;;6.50;1.80;;;;;;;21.53;55.86;101931.94;5043290;28;20053;-63
2023/08/23 01:16:32;;;;;;;3.60;1.70;;;;;;;21.52;55.78;101929.47;5043319;28;20088;-63
2023/08/23 01:19:04;;;;;;;6.10;1.80;;;;;;;21.51;55.98;101931.38;5042917;28;20053;-61
2023/08/23 01:21:34;;;;;;;1.92;1.45;;;;;;;21.50;55.82;101935.22;5042678;28;20053;-61
2023/08/23 01:24:08;;;;;;;4.78;1.48;;;;;;;21.49;56.08;101932.75;5043255;28;20074;-61
2023/08/23 01:26:37;;;;;;;6.15;1.90;;;;;;;21.48;55.97;101939.31;5047066;28;20049;-62
2023/08/23 01:29:05;;;;;;;4.72;1.63;;;;;;;21.47;55.99;101937.66;5023094;28;20049;-61
2023/08/23 01:31:39;;;;;;;4.47;1.90;;;;;;;21.46;55.82;101942.31;5042860;28;20049;-62
2023/08/23 01:34:13;;;;;;;6.18;1.90;;;;;;;21.44;56.08;101936.28;5062817;28;20063;-63
2023/08/23 01:36:42;;;;;;;3.78;2.00;;;;;;;21.44;56.05;101933.53;5058793;28;20053;-61
2023/08/23 01:39:13;;;;;;;3.38;1.70;;;;;;;21.42;56.23;101939.28;5043409;28;20052;-62
2023/08/23 01:41:42;;;;;;;3.28;1.70;;;;;;;21.41;56.06;101934.91;5044745;28;20060;-62
2023/08/23 01:44:10;;;;;;;2.60;1.52;;;;;;;21.41;56.06;101934.09;5062574;28;20055;-61
2023/08/23 01:46:38;;;;;;;3.42;1.42;;;;;;;21.39;56.00;101926.16;5061026;27;20052;-62
2023/08/23 01:49:07;;;;;;;5.30;1.50;;;;;;;21.37;55.96;101925.59;5024451;28;20042;-62
2023/08/23 01:51:34;;;;;;;3.40;1.60;;;;;;;21.36;55.99;101921.22;5042252;28;20050;-63
2023/08/23 01:54:02;;;;;;;2.67;1.80;;;;;;;21.35;56.00;101918.75;5051197;28;20052;-62
2023/08/23 01:56:32;;;;;;;3.63;1.50;;;;;;;21.34;55.98;101920.66;5060941;28;20121;-62
2023/08/23 01:58:59;;;;;;;2.38;1.60;;;;;;;21.32;56.32;101920.09;5062253;28;20395;-62
2023/08/23 02:01:27;;;;;;;2.45;1.73;;;;;;;21.30;56.11;101919.53;5051738;28;20104;-62
2023/08/23 02:03:55;;;;;;;5.03;2.00;;;;;;;21.31;55.97;101917.63;5042290;28;20049;-62
2023/08/23 02:06:23;;;;;;;4.82;1.60;;;;;;;21.29;56.08;101914.34;5045922;27;20091;-62
2023/08/23 02:08:51;;;;;;;4.28;1.67;;;;;;;21.27;56.23;101909.13;5061946;28;20060;-62
2023/08/23 02:11:19;;;;;;;2.88;1.45;;;;;;;21.26;56.10;101914.88;5062418;28;20049;-61
2023/08/23 02:13:49;;;;;;;4.88;1.80;;;;;;;21.24;56.20;101908.84;5048189;28;20057;-62
2023/08/23 02:16:17;;;;;;;2.88;1.55;;;;;;;21.23;56.30;101918.16;5042536;28;20615;-62
2023/08/23 02:18:45;;;;;;;3.90;2.05;;;;;;;21.20;56.22;101919.47;5056563;28;20108;-62
2023/08/23 02:21:13;;;;;;;3.05;1.55;;;;;;;21.19;56.38;101911.53;5061997;28;20056;-62
2023/08/23 02:23:41;;;;;;;4.65;1.48;;;;;;;21.18;56.41;101918.09;5056316;28;20057;-62
2023/08/23 02:26:09;;;;;;;2.80;1.60;;;;;;;21.17;56.31;101921.91;5049774;28;20135;-62
2023/08/23 02:28:36;;;;;;;2.67;1.80;;;;;;;21.16;56.27;101921.09;5065457;28;20435;-62
2023/08/23 02:31:06;;;;;;;2.72;1.52;;;;;;;21.13;56.23;101916.16;5064152;28;20045;-62
2023/08/23 02:33:34;;;;;;;2.35;1.20;;;;;;;21.12;56.19;101906.31;5065414;28;20070;-63
2023/08/23 02:36:01;;;;;;;6.53;1.40;;;;;;;21.02;56.32;101904.34;5065396;28;20074;-61
2023/08/23 02:38:29;;;;;;;2.33;1.70;;;;;;;21.07;56.42;101915.31;5058905;28;20046;-61
2023/08/23 02:40:57;;;;;;;2.60;1.38;;;;;;;21.07;56.43;101912.56;5045486;28;20045;-62
2023/08/23 02:43:25;;;;;;;2.42;1.40;;;;;;;21.06;56.43;101910.09;5045143;28;20491;-62
2023/08/23 02:45:53;;;;;;;3.08;1.77;;;;;;;21.04;56.35;101913.09;5047905;28;20090;-62
2023/08/23 02:48:23;;;;;;;4.43;1.63;;;;;;;21.04;56.56;101906.81;5045225;28;20054;-62
2023/08/23 02:50:51;;;;;;;2.90;1.60;;;;;;;21.02;56.40;101911.72;5058766;28;20087;-62
2023/08/23 02:53:19;;;;;;;3.90;1.70;;;;;;;21.00;56.28;101902.97;5061978;28;20060;-62
2023/08/23 02:55:47;;;;;;;2.88;1.90;;;;;;;20.98;56.31;101900.50;5065089;28;20057;-63
2023/08/23 02:58:14;;;;;;;3.58;1.58;;;;;;;20.97;56.44;101900.78;5049417;28;20438;-62
2023/08/23 03:00:42;;;;;;;3.15;1.80;;;;;;;20.95;56.49;101898.31;5045106;28;20072;-62
2023/08/23 03:03:10;;;;;;;2.90;1.42;;;;;;;20.94;56.34;101904.84;5050583;28;20063;-62
2023/08/23 03:05:39;;;;;;;2.13;1.45;;;;;;;20.91;56.41;101899.91;5065056;28;20045;-63
2023/08/23 03:08:08;;;;;;;3.97;1.65;;;;;;;20.91;56.43;101897.19;5064711;27;20049;-62
2023/08/23 03:10:36;;;;;;;2.58;1.50;;;;;;;20.89;56.39;101888.44;5064943;28;20067;-62
2023/08/23 03:13:04;;;;;;;3.47;1.67;;;;;;;20.89;56.38;101901.28;5045435;28;20060;-61
2023/08/23 03:15:32;;;;;;;5.63;1.70;;;;;;;20.88;56.44;101897.72;5044903;28;20057;-62
2023/08/23 03:17:59;;;;;;;4.18;1.65;;;;;;;20.86;56.40;101899.06;5044553;28;20065;-62
2023/08/23 03:20:27;;;;;;;2.55;1.42;;;;;;;20.85;56.33;101892.78;5044824;28;20058;-62
2023/08/23 03:22:57;;;;;;;2.45;1.50;;;;;;;20.84;56.38;101887.59;5044668;27;20048;-62
2023/08/23 03:25:25;;;;;;;3.78;1.63;;;;;;;20.82;56.35;101885.13;5044693;28;20045;-63
2023/08/23 03:27:53;;;;;;;5.20;1.75;;;;;;;20.80;56.44;101879.91;5097695;27;20043;-62
2023/08/23 03:30:21;;;;;;;2.40;1.58;;;;;;;20.82;56.41;101890.56;5118271;27;20060;-62
2023/08/23 03:32:49;;;;;;;2.95;1.60;;;;;;;20.80;56.59;101882.66;5064037;28;20704;-62
2023/08/23 03:35:17;;;;;;;4.00;1.20;;;;;;;20.79;56.41;101889.22;5063556;28;20049;-62
2023/08/23 03:37:45;;;;;;;4.05;1.60;;;;;;;20.79;56.38;101896.59;5051628;28;20079;-62
2023/08/23 03:40:14;;;;;;;3.25;1.58;;;;;;;20.76;56.51;101903.41;5044884;28;20101;-62
2023/08/23 03:42:42;;;;;;;4.25;1.80;;;;;;;20.76;56.56;101897.13;5044279;28;20399;-62
2023/08/23 03:45:11;;;;;;;2.78;1.50;;;;;;;20.75;56.51;101901.78;5043573;28;20067;-62
2023/08/23 03:47:39;;;;;;;2.70;1.77;;;;;;;20.74;56.63;101889.19;5044266;28;20053;-62
2023/08/23 03:50:08;;;;;;;3.88;1.70;;;;;;;20.73;56.48;101893.03;5044274;28;20050;-62
2023/08/23 03:52:36;;;;;;;2.28;1.85;;;;;;;20.71;56.47;101894.38;5058102;27;20045;-62
2023/08/23 03:55:04;;;;;;;6.15;1.63;;;;;;;20.70;56.55;101890.81;5061754;28;20077;-63
2023/08/23 03:57:33;;;;;;;2.78;1.88;;;;;;;20.69;56.61;101889.16;5064180;28;20049;-62
2023/08/23 04:00:01;;;;;;;6.93;1.80;;;;;;;20.67;56.62;101896.81;5051840;28;20402;-62
2023/08/23 04:02:29;;;;;;;2.10;1.50;;;;;;;20.65;56.65;101890.78;5052364;28;20053;-62
2023/08/23 04:04:57;;;;;;;2.78;1.85;;;;;;;20.65;56.77;101888.06;5064175;28;20132;-62
2023/08/23 04:07:25;;;;;;;2.20;1.60;;;;;;;20.64;56.72;101899.25;5044897;28;20106;-62
2023/08/23 04:09:53;;;;;;;3.53;1.80;;;;;;;20.64;56.60;101896.50;5048584;28;20049;-61
2023/08/23 04:12:20;;;;;;;5.05;1.90;;;;;;;20.62;56.71;101896.78;5063757;28;20078;-62
2023/08/23 04:14:50;;;;;;;4.50;1.80;;;;;;;20.61;56.80;101894.31;5051523;28;20057;-62
2023/08/23 04:17:18;;;;;;;2.60;1.65;;;;;;;20.61;56.98;101899.78;5043825;28;20053;-61
2023/08/23 04:19:46;;;;;;;4.03;1.77;;;;;;;20.59;56.81;101897.31;5043871;28;20094;-62
2023/08/23 04:22:13;;;;;;;1.90;1.45;;;;;;;20.57;56.73;101894.00;5047042;28;20045;-62
2023/08/23 04:24:42;;;;;;;3.90;2.05;;;;;;;20.55;56.84;101900.81;5047434;28;20086;-62
2023/08/23 04:27:10;;;;;;;2.20;1.67;;;;;;;20.54;56.76;101904.63;5054798;28;20049;-63
2023/08/23 04:29:37;;;;;;;3.35;1.70;;;;;;;20.54;56.83;101902.72;5063799;28;20056;-61
2023/08/23 04:32:12;;;;;;;3.28;1.77;;;;;;;20.52;56.68;101896.72;5060535;28;20041;-62
2023/08/23 04:34:40;;;;;;;3.55;1.83;;;;;;;20.51;56.80;101894.25;5060593;28;20089;-62
2023/08/23 04:37:08;;;;;;;2.72;1.83;;;;;;;20.49;56.78;101905.44;5055883;28;20090;-62
2023/08/23 04:39:36;;;;;;;4.30;2.17;;;;;;;20.49;56.88;101899.13;5051916;27;20048;-62
2023/08/23 04:42:04;;;;;;;3.38;1.80;;;;;;;20.49;56.93;101904.59;5062731;28;20062;-62
2023/08/23 04:44:32;;;;;;;4.95;2.30;;;;;;;20.45;56.87;101901.56;5061259;28;20061;-62
2023/08/23 04:47:01;;;;;;;3.28;1.95;;;;;;;20.45;56.95;101907.03;5062751;28;20124;-62
2023/08/23 04:49:30;;;;;;;2.63;1.70;;;;;;;20.42;56.98;101896.63;5057747;28;20045;-62
2023/08/23 04:51:58;;;;;;;3.25;2.00;;;;;;;20.43;57.07;101903.75;5042778;28;20071;-62
2023/08/23 04:54:26;;;;;;;3.17;2.03;;;;;;;20.43;57.06;101903.75;5054394;28;20048;-62
2023/08/23 04:56:53;;;;;;;3.30;1.85;;;;;;;20.41;57.16;101905.91;5062931;27;20508;-62
2023/08/23 04:59:21;;;;;;;4.35;2.38;;;;;;;20.39;57.16;101899.88;5048484;28;20061;-62
2023/08/23 05:01:49;;;;;;;4.22;1.75;;;;;;;20.39;57.08;101908.91;5043158;28;20045;-61
2023/08/23 05:04:21;;;;;;;4.88;2.10;;;;;;;20.37;57.18;101894.66;5058216;28;20053;-62
2023/08/23 05:06:50;;;;;;;4.70;2.08;;;;;;;20.36;57.20;101894.91;5063025;28;20060;-62
2023/08/23 05:09:18;;;;;;;3.60;2.22;;;;;;;20.34;57.24;101903.38;5062931;28;20056;-62
2023/08/23 05:11:46;;;;;;;4.53;1.80;;;;;;;20.33;57.09;101901.72;5061553;28;20071;-62
2023/08/23 05:14:14;;;;;;;4.03;2.05;;;;;;;20.32;57.27;101897.34;5062869;28;20070;-62
2023/08/23 05:16:42;;;;;;;3.30;1.90;;;;;;;20.32;57.28;101897.34;5060277;28;20074;-62
2023/08/23 05:19:10;;;;;;;7.03;3.45;;;;;;;20.31;57.37;101886.69;5042877;28;20090;-62
2023/08/23 05:21:39;;;;;;;4.90;2.10;;;;;;;20.30;57.39;101887.78;5042873;28;20041;-62
2023/08/23 05:24:08;;;;;;;3.40;1.92;;;;;;;20.30;57.45;101887.78;5043068;27;20053;-63
2023/08/23 05:26:36;;;;;;;5.28;2.55;;;;;;;20.28;57.69;101888.03;5043227;28;20049;-62
2023/08/23 05:29:04;;;;;;;3.75;1.85;;;;;;;20.27;57.67;101883.66;5062891;28;20049;-62
2023/08/23 05:31:31;;;;;;;3.47;2.45;;;;;;;20.27;57.60;101886.38;5062818;28;20049;-62
2023/08/23 05:33:59;;;;;;;4.07;2.30;;;;;;;20.27;57.76;101889.13;5078257;27;20049;-61
2023/08/23 05:36:28;;;;;;;3.80;2.20;;;;;;;20.28;57.92;101895.41;5055760;27;20050;-62
2023/08/23 05:38:56;;;;;;;4.82;2.38;;;;;;;20.26;57.77;101894.84;5060271;28;20071;-62
2023/08/23 05:41:25;;;;;;;3.40;2.25;;;;;;;20.26;57.85;101906.59;5051350;28;20422;-63
2023/08/23 05:43:53;;;;;;;6.43;2.40;;;;;;;20.26;57.88;101901.13;5061917;27;20053;-62
2023/08/23 05:46:21;;;;;;;3.20;1.90;;;;;;;20.24;58.02;101906.03;5042320;28;20061;-62
2023/08/23 05:48:49;;;;;;;5.07;2.47;;;;;;;20.25;58.09;101901.38;5042671;28;20053;-63
2023/08/23 05:51:17;;;;;;;2.83;1.80;;;;;;;20.23;57.98;101909.00;5042440;28;20053;-62
2023/08/23 05:53:45;;;;;;;4.45;2.60;;;;;;;20.23;57.91;101907.09;5047949;28;20049;-62
2023/08/23 05:56:13;;;;;;;5.45;2.22;;;;;;;20.23;58.05;101911.75;5062545;28;20057;-63
2023/08/23 05:58:42;;;;;;;3.80;2.03;;;;;;;20.24;57.96;101913.38;5044906;28;20075;-62
2023/08/23 06:01:10;;;;;;;4.78;2.33;;;;;;;20.23;58.05;101914.47;5055819;27;20505;-62
2023/08/23 06:03:38;;;;;;;4.25;2.20;;;;;;;20.23;57.93;101906.28;5066094;27;20056;-62
2023/08/23 06:06:06;;;;;;;7.93;2.35;;;;;;;20.23;58.10;101920.75;5064497;28;20046;-61
2023/08/23 06:08:35;;;;;;;3.17;2.13;;;;;;;20.24;58.14;101927.03;5065472;27;20524;-62
2023/08/23 06:11:03;;;;;;;3.83;1.88;;;;;;;20.26;58.13;101927.59;5066143;28;20055;-62
2023/08/23 06:13:31;;;;;;;3.53;2.10;;;;;;;20.27;58.02;101924.59;5065669;28;20102;-61
2023/08/23 06:16:00;;;;;;;5.40;1.88;;;;;;;20.28;57.77;101920.78;5051676;28;20053;-62
2023/08/23 06:18:28;;;;;;;3.53;2.10;;;;;;;20.30;57.98;101912.34;5045670;28;20050;-62
2023/08/23 06:20:56;;;;;;;4.32;1.90;;;;;;;20.25;57.81;101910.41;5045863;28;20056;-62
2023/08/23 06:23:24;;;;;;;3.28;2.03;;;;;;;20.32;57.54;101924.66;5045591;27;20053;-61
2023/08/23 06:25:58;;;;;;;6.85;2.03;;;;;;;20.34;57.69;101929.84;5045805;28;20045;-61
2023/08/23 06:28:26;;;;;;;3.85;2.20;;;;;;;20.37;57.66;101932.88;5123114;27;20043;-61
2023/08/23 06:30:55;;;;;;;4.03;2.40;;;;;;;20.37;57.50;101921.97;5110658;27;20056;-61
2023/08/23 06:33:24;;;;;;;3.47;2.38;;;;;;;20.39;57.47;101932.66;5052988;28;20059;-62
2023/08/23 06:35:52;;;;;;;4.57;2.35;;;;;;;20.40;57.52;101935.13;5064158;28;20617;-62
2023/08/23 06:38:20;;;;;;;16.30;2.40;;;;;;;20.41;57.69;101928.56;5129864;27;20073;-62
2023/08/23 06:40:48;;;;;;;3.25;2.00;;;;;;;20.43;57.79;101928.31;5055883;28;20048;-62
2023/08/23 06:43:18;;;;;;;6.03;2.42;;;;;;;20.43;57.83;101925.59;5049136;28;20042;-62
2023/08/23 06:45:46;;;;;;;4.88;1.80;;;;;;;20.45;57.82;101923.41;5045411;28;20057;-62
2023/08/23 06:48:14;;;;;;;4.43;2.22;;;;;;;20.47;57.93;101921.25;5045222;28;20071;-62
2023/08/23 06:50:43;;;;;;;6.03;2.35;;;;;;;20.49;58.01;101921.00;5045255;28;20110;-61
2023/08/23 06:53:11;;;;;;;5.68;2.05;;;;;;;20.50;57.98;101917.16;5046572;28;20085;-61
2023/08/23 06:55:40;;;;;;;4.88;2.30;;;;;;;20.50;57.88;101928.09;5065347;28;20123;-62
2023/08/23 06:58:08;;;;;;;6.28;2.50;;;;;;;20.51;57.81;101927.84;5047930;28;20083;-62
2023/08/23 07:00:37;;;;;;;3.60;1.88;;;;;;;20.49;57.88;101938.19;5045177;28;20056;-62
2023/08/23 07:03:05;;;;;;;5.28;2.08;;;;;;;20.42;58.07;101929.41;5047559;28;20041;-62
2023/08/23 07:05:34;;;;;;;4.50;2.00;;;;;;;20.48;57.89;101942.00;5065086;28;20076;-61
2023/08/23 07:08:03;;;;;;;4.22;2.10;;;;;;;20.45;57.92;101932.44;5064345;28;20049;-63
2023/08/23 07:10:31;;;;;;;3.83;2.00;;;;;;;20.45;57.98;101946.09;5051969;28;20060;-62
2023/08/23 07:12:59;;;;;;;4.78;1.98;;;;;;;20.44;58.01;101949.06;5044524;28;20522;-61
2023/08/23 07:15:27;;;;;;;5.35;2.25;;;;;;;20.43;58.13;101956.44;5053092;28;20101;-61
2023/08/23 07:17:55;;;;;;;3.17;1.77;;;;;;;20.41;58.10;101953.16;5064703;27;20052;-62
2023/08/23 07:20:23;;;;;;;3.15;1.63;;;;;;;20.41;58.12;101958.63;5064814;28;20079;-63
2023/08/23 07:22:51;;;;;;;3.42;1.60;;;;;;;20.40;58.17;101956.97;5045775;28;20045;-63
2023/08/23 07:25:20;;;;;;;3.55;1.88;;;;;;;20.41;58.39;101953.16;5044811;28;20045;-62
2023/08/23 07:27:49;;;;;;;9.20;2.28;;;;;;;20.42;58.36;101962.16;5037097;28;20121;-62
2023/08/23 07:30:17;;;;;;;2.80;1.80;;;;;;;20.42;58.37;101967.63;5044136;28;20071;-62
2023/08/23 07:32:45;;;;;;;6.50;2.42;;;;;;;20.42;58.50;101968.47;5046572;28;20531;-62
2023/08/23 07:35:13;;;;;;;3.50;2.15;;;;;;;20.42;58.54;101960.25;5064526;28;20080;-62
2023/08/23 07:37:41;;;;;;;7.25;1.85;;;;;;;20.44;58.59;101963.56;5055448;28;20066;-62
2023/08/23 07:40:11;;;;;;;5.68;2.20;;;;;;;20.45;58.63;101962.47;5044669;28;20050;-62
2023/08/23 07:42:41;;;;;;;5.25;1.90;;;;;;;20.46;58.68;101961.38;5044107;28;20110;-62
2023/08/23 07:45:10;;;;;;;4.97;2.10;;;;;;;20.46;58.60;101963.28;5044392;28;20064;-62
2023/08/23 07:47:38;;;;;;;5.35;2.30;;;;;;;20.48;58.65;101963.84;5044124;28;20045;-62
2023/08/23 07:50:08;;;;;;;3.13;1.83;;;;;;;20.49;58.66;101970.97;5044313;28;20569;-62
2023/08/23 07:52:36;;;;;;;6.65;2.00;;;;;;;20.50;58.72;101977.25;5043848;28;20052;-63
2023/08/23 07:55:05;;;;;;;4.38;1.90;;;;;;;20.51;58.75;101974.25;5062077;28;20049;-63
2023/08/23 07:57:33;;;;;;;5.45;2.13;;;;;;;20.52;58.89;101975.09;5051960;28;20083;-63
2023/08/23 08:00:02;;;;;;;4.38;2.00;;;;;;;20.52;58.81;101975.91;5044607;28;20132;-63
2023/08/23 08:02:31;;;;;;;3.50;1.98;;;;;;;20.52;58.86;101967.72;5043823;28;20046;-62
2023/08/23 08:04:59;;;;;;;4.85;2.15;;;;;;;20.54;58.86;101964.72;5044199;28;20086;-63
2023/08/23 08:07:29;;;;;;;4.65;2.50;;;;;;;20.53;58.93;101969.38;5052657;27;20076;-63
2023/08/23 08:10:17;;;;;;;5.45;2.65;;;;;;;20.55;58.94;101969.09;5064269;28;20073;-62
2023/08/23 08:12:45;;;;;;;4.00;1.77;;;;;;;20.56;58.97;101965.28;5063908;27;20045;-62
2023/08/23 08:15:15;;;;;;;5.88;2.10;;;;;;;20.56;59.10;101959.81;5047663;28;20486;-62
2023/08/23 08:17:43;;;;;;;5.70;2.00;;;;;;;20.57;59.09;101964.19;5043893;28;20050;-62
2023/08/23 08:20:12;;;;;;;4.40;1.88;;;;;;;20.57;59.04;101973.22;5046466;28;20079;-62
2023/08/23 08:22:40;;;;;;;3.08;1.60;;;;;;;20.59;59.14;101978.41;5063557;28;20108;-62
2023/08/23 08:25:08;;;;;;;4.45;1.92;;;;;;;20.59;59.21;101967.50;5039493;28;20057;-62
2023/08/23 08:27:40;;;;;;;3.97;1.95;;;;;;;20.60;59.08;101974.59;5078242;27;20047;-62
2023/08/23 08:30:09;;;;;;;5.95;2.10;;;;;;;20.61;59.22;101965.31;5064021;28;20070;-62
2023/08/23 08:32:38;;;;;;;10.15;2.35;;;;;;;20.63;59.62;101966.72;5063483;27;20113;-63
2023/08/23 08:35:06;;;;;;;3.28;1.50;;;;;;;20.65;59.39;101961.81;5052773;28;20068;-62
2023/08/23 08:37:34;;;;;;;4.25;2.03;;;;;;;20.66;59.44;101968.91;5109641;27;20051;-62
2023/08/23 08:40:03;;;;;;;5.10;2.50;;;;;;;20.59;59.32;101949.19;5065867;27;20059;-63
2023/08/23 08:42:31;;;;;;;4.38;1.98;;;;;;;20.69;59.44;101962.09;5043584;28;20075;-62
2023/08/23 08:44:59;;;;;;;4.95;1.88;;;;;;;20.71;59.81;101965.41;5043601;28;20065;-62
2023/08/23 08:47:27;;;;;;;6.50;2.00;;;;;;;20.72;60.07;101954.22;5043269;28;20478;-61
2023/08/23 08:49:56;;;;;;;3.70;1.80;;;;;;;20.75;59.96;101961.06;5043457;28;20077;-61
2023/08/23 08:52:27;;;;;;;5.60;2.30;;;;;;;20.77;60.05;101959.72;5042888;28;20073;-62
2023/08/23 08:54:58;;;;;;;3.55;1.88;;;;;;;20.80;60.08;101966.56;5041579;28;20046;-63
2023/08/23 08:57:28;;;;;;;3.70;1.70;;;;;;;20.82;60.10;101961.63;5043492;28;20110;-63
2023/08/23 08:59:57;;;;;;;3.25;1.80;;;;;;;20.83;59.95;101960.53;5043777;28;20056;-62
2023/08/23 09:02:28;;;;;;;5.43;1.88;;;;;;;20.85;59.99;101957.53;5058050;28;20082;-62
2023/08/23 09:04:58;;;;;;;3.28;1.90;;;;;;;20.86;60.20;101953.72;5063161;28;20045;-62
2023/08/23 09:07:27;;;;;;;5.05;2.20;;;;;;;20.88;60.39;101960.56;5063047;28;20065;-64
2023/08/23 09:09:55;;;;;;;6.82;2.35;;;;;;;20.89;60.35;101962.22;5061924;28;20068;-63
2023/08/23 09:12:23;;;;;;;3.90;2.33;;;;;;;20.93;60.21;101951.59;5063272;28;20067;-62
2023/08/23 09:14:52;;;;;;;5.07;1.70;;;;;;;20.94;60.03;101953.22;5062837;28;20041;-62
2023/08/23 09:17:22;;;;;;;6.80;2.67;;;;;;;20.97;60.20;101947.22;5061394;28;20049;-62
2023/08/23 09:19:50;;;;;;;6.22;2.25;;;;;;;20.99;60.12;101948.63;5060183;28;20089;-62
2023/08/23 09:22:23;;;;;;;3.30;1.65;;;;;;;21.01;60.04;101954.63;5041854;28;20064;-63
2023/08/23 09:24:50;;;;;;;4.70;1.90;;;;;;;21.04;60.21;101950.56;5043185;28;20071;-62
2023/08/23 09:27:20;;;;;;;3.60;1.95;;;;;;;21.04;60.11;101950.56;5071383;28;20058;-62
2023/08/23 09:30:09;;;;;;;4.80;2.20;;;;;;;21.09;60.29;101958.78;5122649;27;20578;-63
2023/08/23 09:32:37;;;;;;;3.95;2.03;;;;;;;21.12;60.45;101960.97;5047442;28;20050;-63
2023/08/23 09:35:12;;;;;;;3.40;1.75;;;;;;;21.15;60.26;101965.09;5147048;27;20050;-63
2023/08/23 09:37:42;;;;;;;4.70;2.30;;;;;;;21.17;60.23;101971.13;5146577;27;20115;-63
2023/08/23 09:40:21;;;;;;;5.97;2.00;;;;;;;21.22;60.51;101974.75;5053137;27;20074;-63
2023/08/23 09:42:50;;;;;;;7.07;1.63;;;;;;;21.24;60.41;101975.31;5042658;28;20079;-63
2023/08/23 09:45:20;;;;;;;7.28;2.13;;;;;;;21.27;60.49;101976.69;5054832;28;20045;-63
2023/08/23 09:47:53;;;;;;;4.07;1.98;;;;;;;21.30;60.63;101959.75;5062627;28;20058;-63
2023/08/23 09:50:22;;;;;;;5.13;2.80;;;;;;;21.35;60.65;101957.03;5050757;28;20049;-63
2023/08/23 09:52:53;;;;;;;5.32;2.38;;;;;;;21.41;60.99;101958.69;5058145;27;20049;-63
2023/08/23 09:55:21;;;;;;;6.60;2.58;;;;;;;21.48;60.77;101958.44;5042710;28;20041;-63
2023/08/23 09:57:49;;;;;;;5.45;1.80;;;;;;;21.51;60.85;101952.44;5042610;28;20094;-62
2023/08/23 10:00:18;;;;;;;5.68;2.45;;;;;;;21.57;60.71;101951.38;5055404;28;20049;-61
2023/08/23 10:02:47;;;;;;;5.53;2.60;;;;;;;21.63;60.81;101953.84;5062275;27;20059;-62
2023/08/23 10:05:17;;;;;;;8.27;2.20;;;;;;;21.68;60.90;101962.06;5062386;28;20053;-63
2023/08/23 10:07:46;;;;;;;2.90;1.67;;;;;;;21.73;60.94;101958.53;5061887;28;20553;-62
2023/08/23 10:10:16;;;;;;;4.22;2.10;;;;;;;21.76;60.98;101956.09;5047860;28;20543;-62
2023/08/23 10:12:48;;;;;;;5.60;1.92;;;;;;;21.81;60.96;101960.75;5042317;28;20377;-63
2023/08/23 10:15:17;;;;;;;5.47;2.28;;;;;;;21.84;60.82;101952.00;5042573;28;20049;-62
2023/08/23 10:17:47;;;;;;;6.90;2.63;;;;;;;21.89;61.23;101952.00;5042033;28;20049;-63
2023/08/23 10:20:16;;;;;;;6.32;2.05;;;;;;;21.94;61.22;101959.41;5042488;28;20140;-63
2023/08/23 10:22:44;;;;;;;4.85;1.92;;;;;;;21.96;60.96;101963.50;5054794;27;20498;-63
2023/08/23 10:25:18;;;;;;;3.50;1.80;;;;;;;21.97;60.49;101956.94;5042036;28;20071;-63
2023/08/23 10:27:47;;;;;;;5.18;1.52;;;;;;;21.98;60.76;101949.56;5044317;28;20049;-63
2023/08/23 10:30:22;;;;;;;3.35;1.80;;;;;;;21.99;60.64;101954.75;5062408;28;20069;-63
2023/08/23 10:32:50;;;;;;;2.65;1.67;;;;;;;22.00;60.47;101948.19;5064143;28;20054;-63
2023/08/23 10:35:23;;;;;;;5.50;2.03;;;;;;;22.03;60.32;101955.91;5062193;28;20204;-63
2023/08/23 10:37:53;;;;;;;3.95;1.65;;;;;;;22.11;60.43;101968.22;5117770;28;20058;-63
2023/08/23 10:40:23;;;;;;;4.63;1.85;;;;;;;22.09;60.22;101948.50;5050748;28;20045;-62
2023/08/23 10:42:51;;;;;;;2.55;1.42;;;;;;;22.20;59.93;101957.56;5041796;28;20081;-62
2023/08/23 10:45:19;;;;;;;3.95;1.75;;;;;;;22.22;60.13;101947.16;5059415;28;20060;-64
2023/08/23 10:47:50;;;;;;;3.17;1.60;;;;;;;22.23;59.37;101944.13;5063810;28;20068;-63
2023/08/23 10:50:20;;;;;;;3.10;1.70;;;;;;;22.26;59.47;101938.13;5053673;28;20056;-63
2023/08/23 10:52:49;;;;;;;6.05;1.98;;;;;;;22.33;59.53;101940.59;5044100;28;20050;-62
2023/08/23 10:55:17;;;;;;;5.13;1.65;;;;;;;22.38;59.70;101933.19;5061671;27;20102;-62
2023/08/23 10:57:46;;;;;;;4.93;1.98;;;;;;;22.44;59.53;101946.88;5045243;28;20045;-62
2023/08/23 11:00:15;;;;;;;4.55;1.83;;;;;;;22.50;59.31;101940.31;5045496;28;20045;-62
2023/08/23 11:02:44;;;;;;;3.53;1.77;;;;;;;22.56;58.98;101931.78;5045063;28;20098;-62
2023/08/23 11:05:12;;;;;;;3.03;1.70;;;;;;;22.60;59.00;101924.66;5045203;28;20073;-62
2023/08/23 11:07:40;;;;;;;2.90;1.35;;;;;;;22.62;58.71;101921.63;5044968;28;21146;-63
2023/08/23 11:10:10;;;;;;;5.18;2.00;;;;;;;22.66;58.84;101914.50;5045243;28;20050;-63
2023/08/23 11:12:39;;;;;;;5.50;2.00;;;;;;;22.66;57.45;101915.31;5044780;28;20050;-62
2023/08/23 11:15:09;;;;;;;3.78;1.58;;;;;;;22.70;57.54;101912.84;5044680;28;20061;-62
2023/08/23 11:17:37;;;;;;;3.22;1.65;;;;;;;22.71;56.81;101911.75;5025470;28;20087;-62
2023/08/23 11:20:08;;;;;;;2.95;1.60;;;;;;;22.72;56.73;101910.66;5025206;28;20095;-63
2023/08/23 11:22:36;;;;;;;2.90;1.70;;;;;;;22.74;56.33;101912.00;5044747;27;20470;-62
2023/08/23 11:25:04;;;;;;;3.60;1.40;;;;;;;22.77;56.14;101907.91;5045021;28;20046;-63
2023/08/23 11:27:32;;;;;;;3.10;1.52;;;;;;;22.79;56.68;101905.72;5083166;27;20043;-63
2023/08/23 11:30:01;;;;;;;4.55;1.73;;;;;;;22.84;56.10;101907.63;5149574;27;20047;-63
2023/08/23 11:32:31;;;;;;;5.80;1.70;;;;;;;22.90;55.84;101909.25;5066673;27;20057;-63